Time;durP1;ratioP1;P1;durP2;ratioP2;P2;SDS_P1;SDS_P2;PMS_P1;PMS_P2;Temp;Humidity;BMP_temperature;BMP_pressure;BME280_temperature;BME280_humidity;BME280_pressure;Samples;Min_cycle;Max_cycle;Signal;HPM_P1;HPM_P2
2021/12/30 00:02:18;;;;;;;156.43;99.25;;;26.40;99.90;;;;;;5044513;28;20079;-73
2021/12/30 00:04:45;;;;;;;113.32;87.65;;;26.40;99.90;;;;;;5043032;28;20036;-73
2021/12/30 00:07:12;;;;;;;115.22;84.80;;;26.40;99.90;;;;;;5041289;28;20037;-72
2021/12/30 00:09:39;;;;;;;110.65;80.45;;;26.30;99.90;;;;;;5041051;28;20051;-73
2021/12/30 00:12:07;;;;;;;87.13;60.03;;;26.30;99.90;;;;;;5044552;28;20497;-77
2021/12/30 00:14:34;;;;;;;85.10;57.10;;;26.30;99.90;;;;;;5045586;28;20028;-74
2021/12/30 00:17:00;;;;;;;79.03;56.60;;;26.30;99.90;;;;;;5040265;28;20095;-75
2021/12/30 00:19:27;;;;;;;91.57;58.65;;;26.40;99.90;;;;;;5042888;28;20040;-75
2021/12/30 00:21:54;;;;;;;79.95;51.97;;;26.50;99.90;;;;;;5043727;28;20029;-75
2021/12/30 00:24:20;;;;;;;72.63;52.83;;;26.40;99.90;;;;;;5044820;28;20048;-77
2021/12/30 00:26:47;;;;;;;66.25;50.15;;;26.40;99.90;;;;;;5045726;28;20064;-73
2021/12/30 00:29:14;;;;;;;77.75;53.45;;;26.40;99.90;;;;;;5044726;28;20086;-74
2021/12/30 00:31:40;;;;;;;81.07;56.28;;;26.50;99.90;;;;;;5043728;28;20033;-75
2021/12/30 00:34:07;;;;;;;80.43;55.28;;;26.50;99.90;;;;;;5045268;28;20021;-73
2021/12/30 00:36:34;;;;;;;76.70;53.50;;;26.50;99.90;;;;;;5044855;28;20478;-74
2021/12/30 00:39:01;;;;;;;75.90;51.53;;;26.50;99.90;;;;;;5042140;28;20060;-73
2021/12/30 00:41:27;;;;;;;69.50;48.55;;;26.50;99.90;;;;;;5044486;28;20021;-71
2021/12/30 00:43:54;;;;;;;74.25;51.05;;;26.60;99.90;;;;;;5044581;28;20378;-72
2021/12/30 00:46:21;;;;;;;58.63;43.58;;;26.60;99.90;;;;;;5043378;28;20036;-73
2021/12/30 00:48:47;;;;;;;68.95;42.88;;;26.60;99.90;;;;;;5042491;28;20037;-73
2021/12/30 00:51:14;;;;;;;54.92;39.78;;;26.70;99.90;;;;;;5042412;28;20030;-74
2021/12/30 00:53:41;;;;;;;64.10;42.55;;;26.70;99.90;;;;;;5043633;28;20028;-73
2021/12/30 00:56:08;;;;;;;58.00;36.15;;;26.70;99.90;;;;;;5044745;28;20104;-73
2021/12/30 00:58:35;;;;;;;65.40;40.17;;;26.80;99.90;;;;;;5043948;28;20031;-74
2021/12/30 01:01:04;;;;;;;64.10;41.63;;;26.90;99.90;;;;;;5041757;28;20028;-71
2021/12/30 01:03:32;;;;;;;67.72;39.08;;;26.90;99.90;;;;;;5043146;28;20021;-74
2021/12/30 01:05:59;;;;;;;62.63;39.20;;;26.90;99.90;;;;;;5044891;28;20036;-71
2021/12/30 01:08:26;;;;;;;52.08;33.40;;;27.00;99.90;;;;;;5044080;28;20470;-72
2021/12/30 01:10:53;;;;;;;55.22;35.33;;;27.20;99.90;;;;;;5044228;28;20112;-74
2021/12/30 01:13:26;;;;;;;48.05;30.90;;;27.20;99.90;;;;;;5044399;28;20068;-75
2021/12/30 01:16:03;;;;;;;48.45;34.55;;;27.30;99.90;;;;;;5042652;28;20029;-72
2021/12/30 01:18:42;;;;;;;48.42;34.80;;;27.40;99.90;;;;;;5044175;28;20025;-72
2021/12/30 01:21:12;;;;;;;45.10;30.88;;;27.30;99.90;;;;;;5043062;28;20431;-72
2021/12/30 01:23:41;;;;;;;49.03;31.40;;;27.40;99.90;;;;;;5043400;28;20364;-73
2021/12/30 01:26:09;;;;;;;49.58;32.30;;;27.40;99.90;;;;;;5041119;28;20040;-72
2021/12/30 01:28:36;;;;;;;46.58;31.63;;;27.50;99.90;;;;;;5041711;28;20041;-73
2021/12/30 01:31:04;;;;;;;51.40;35.45;;;27.70;99.90;;;;;;5040851;28;20056;-74
2021/12/30 01:33:31;;;;;;;60.65;44.72;;;27.70;99.90;;;;;;5042461;28;20036;-74
2021/12/30 01:35:57;;;;;;;50.97;37.45;;;27.80;99.90;;;;;;5041929;28;20024;-73
2021/12/30 01:38:24;;;;;;;77.80;42.63;;;27.90;99.90;;;;;;5046711;28;20025;-73
2021/12/30 01:40:54;;;;;;;80.78;58.22;;;28.00;99.90;;;;;;5046379;28;20022;-72
2021/12/30 01:43:21;;;;;;;69.32;48.53;;;28.00;99.90;;;;;;5039156;28;20038;-71
2021/12/30 01:45:48;;;;;;;74.97;49.40;;;28.10;99.90;;;;;;5036955;28;20030;-73
2021/12/30 01:48:15;;;;;;;66.53;46.10;;;28.20;99.90;;;;;;5052674;28;20469;-77
2021/12/30 01:50:42;;;;;;;69.43;50.95;;;28.30;99.90;;;;;;5033023;28;20116;-74
2021/12/30 01:53:10;;;;;;;95.00;69.10;;;28.30;99.90;;;;;;5033340;28;20040;-74
2021/12/30 01:55:38;;;;;;;126.70;92.45;;;28.40;99.90;;;;;;5036631;28;20030;-74
2021/12/30 01:58:06;;;;;;;66.65;47.25;;;28.50;99.90;;;;;;5042552;28;20037;-73
2021/12/30 02:00:35;;;;;;;121.35;85.72;;;28.50;99.90;;;;;;5042207;28;20027;-76
2021/12/30 02:03:02;;;;;;;62.00;48.10;;;28.60;99.90;;;;;;5038705;28;20029;-75
2021/12/30 02:05:29;;;;;;;61.88;44.90;;;28.70;99.90;;;;;;5043682;28;20025;-78
2021/12/30 02:07:57;;;;;;;63.28;44.50;;;29.00;99.90;;;;;;5041687;28;20028;-76
2021/12/30 02:10:24;;;;;;;64.15;43.67;;;29.00;99.90;;;;;;5043040;28;20022;-76
2021/12/30 02:12:51;;;;;;;70.68;45.08;;;29.00;99.90;;;;;;5041551;28;20370;-76
2021/12/30 02:15:20;;;;;;;66.53;47.13;;;28.90;99.90;;;;;;5043050;28;20021;-76
2021/12/30 02:17:52;;;;;;;52.95;40.33;;;28.90;99.90;;;;;;5041017;28;20064;-76
2021/12/30 02:20:39;;;;;;;47.28;37.17;;;28.80;99.90;;;;;;5044001;28;20029;-77
2021/12/30 02:23:07;;;;;;;47.72;34.08;;;28.90;99.90;;;;;;5040349;28;20037;-73
2021/12/30 02:25:34;;;;;;;47.38;32.95;;;29.00;99.90;;;;;;5041388;28;20091;-74
2021/12/30 02:28:04;;;;;;;46.08;30.23;;;29.10;99.90;;;;;;5039540;28;20025;-74
2021/12/30 02:30:31;;;;;;;39.58;26.52;;;29.10;99.90;;;;;;5043410;28;20066;-73
2021/12/30 02:32:58;;;;;;;44.15;28.25;;;29.30;99.90;;;;;;5041888;28;20439;-75
2021/12/30 02:35:24;;;;;;;34.20;24.23;;;29.40;99.90;;;;;;5043725;28;20021;-73
2021/12/30 02:37:51;;;;;;;37.42;25.85;;;29.60;99.90;;;;;;5050626;28;20025;-74
2021/12/30 02:40:32;;;;;;;48.08;32.53;;;29.40;99.90;;;;;;5042046;28;20021;-77
2021/12/30 02:43:00;;;;;;;236.10;162.80;;;29.40;99.90;;;;;;5038111;28;20040;-74
2021/12/30 02:45:27;;;;;;;330.48;259.00;;;29.40;99.90;;;;;;5038002;28;20033;-75
2021/12/30 02:47:54;;;;;;;56.85;37.45;;;29.40;99.90;;;;;;5040890;28;20029;-77
2021/12/30 02:50:20;;;;;;;67.68;45.40;;;29.40;99.90;;;;;;5043908;28;20029;-76
2021/12/30 02:52:47;;;;;;;31.35;20.10;;;29.40;99.90;;;;;;5041605;28;20030;-72
2021/12/30 02:55:14;;;;;;;85.10;56.80;;;29.50;99.90;;;;;;5041224;28;20029;-75
2021/12/30 02:57:41;;;;;;;31.50;19.20;;;29.60;99.90;;;;;;5045952;28;20082;-75
2021/12/30 03:00:09;;;;;;;39.75;19.95;;;29.60;99.90;;;;;;5033424;28;20018;-76
2021/12/30 03:02:37;;;;;;;31.48;19.55;;;29.50;99.90;;;;;;5031593;28;20386;-76
2021/12/30 03:05:07;;;;;;;27.42;16.98;;;29.50;99.90;;;;;;5034187;28;20032;-77
2021/12/30 03:07:34;;;;;;;27.63;14.90;;;29.40;99.90;;;;;;5034827;28;20112;-76
2021/12/30 03:10:01;;;;;;;34.35;17.60;;;29.50;99.90;;;;;;5034072;28;20441;-76
2021/12/30 03:12:28;;;;;;;28.60;18.73;;;29.70;99.90;;;;;;5032448;28;20057;-73
2021/12/30 03:14:56;;;;;;;32.70;15.73;;;29.80;99.90;;;;;;5032937;28;20378;-74
2021/12/30 03:17:23;;;;;;;20.98;14.77;;;29.90;99.90;;;;;;5035302;28;20032;-74
2021/12/30 03:19:54;;;;;;;26.77;15.02;;;29.90;99.90;;;;;;5045678;28;20385;-77
2021/12/30 03:22:21;;;;;;;26.00;14.60;;;29.90;99.90;;;;;;5046544;28;20033;-78
2021/12/30 03:24:48;;;;;;;29.63;13.48;;;29.70;99.90;;;;;;5045694;28;20055;-76
2021/12/30 03:27:14;;;;;;;34.28;16.33;;;29.60;99.90;;;;;;5043637;28;20032;-76
2021/12/30 03:29:41;;;;;;;32.10;16.17;;;29.70;99.90;;;;;;5041273;28;20047;-73
2021/12/30 03:32:08;;;;;;;25.58;16.77;;;29.80;99.90;;;;;;5038701;28;20025;-72
2021/12/30 03:34:34;;;;;;;21.17;10.93;;;30.00;99.90;;;;;;5049356;28;20020;-73
2021/12/30 03:37:01;;;;;;;19.38;11.27;;;30.00;99.90;;;;;;5042968;28;20017;-72
2021/12/30 03:39:28;;;;;;;26.50;13.15;;;30.00;99.90;;;;;;5041603;28;20023;-76
2021/12/30 03:41:54;;;;;;;23.08;11.77;;;30.20;99.90;;;;;;5048615;28;20029;-75
2021/12/30 03:44:24;;;;;;;20.92;12.45;;;30.30;99.90;;;;;;5048617;28;20029;-75
2021/12/30 03:46:51;;;;;;;21.83;13.25;;;30.30;99.90;;;;;;5044587;28;20033;-76
2021/12/30 03:49:17;;;;;;;26.58;15.65;;;30.30;99.90;;;;;;5041223;28;20018;-74
2021/12/30 03:51:44;;;;;;;20.02;13.15;;;30.20;99.90;;;;;;5040146;28;20025;-74
2021/12/30 03:54:11;;;;;;;26.73;14.05;;;30.20;99.90;;;;;;5040093;28;20474;-73
2021/12/30 03:56:37;;;;;;;21.38;13.07;;;30.30;99.90;;;;;;5041485;28;20062;-75
2021/12/30 03:59:04;;;;;;;27.75;14.65;;;30.50;99.90;;;;;;5043933;28;20070;-73
2021/12/30 04:01:31;;;;;;;30.10;17.80;;;30.40;99.90;;;;;;5042311;28;20057;-78
2021/12/30 04:03:58;;;;;;;26.20;15.60;;;30.30;99.90;;;;;;5039419;28;20080;-75
2021/12/30 04:06:27;;;;;;;22.02;12.63;;;30.30;99.90;;;;;;5048169;28;20036;-72
2021/12/30 04:08:55;;;;;;;22.52;12.35;;;30.40;99.90;;;;;;5044279;28;20061;-76
2021/12/30 04:11:26;;;;;;;24.30;10.82;;;30.70;99.90;;;;;;5042370;28;20100;-78
2021/12/30 04:13:54;;;;;;;20.33;10.00;;;30.90;99.90;;;;;;5043673;28;20033;-75
2021/12/30 04:16:21;;;;;;;23.67;13.00;;;30.90;99.90;;;;;;5048444;28;20489;-72
2021/12/30 04:18:48;;;;;;;27.33;16.02;;;31.00;99.90;;;;;;5046363;28;20025;-74
2021/12/30 04:21:18;;;;;;;32.05;19.77;;;30.80;99.90;;;;;;5043595;28;20030;-75
2021/12/30 04:23:45;;;;;;;25.33;14.30;;;30.70;99.90;;;;;;5044212;28;20044;-77
2021/12/30 04:26:12;;;;;;;23.63;12.93;;;30.70;99.90;;;;;;5046130;28;20056;-72
2021/12/30 04:28:39;;;;;;;24.67;9.25;;;30.80;99.90;;;;;;5044489;28;20038;-72
2021/12/30 04:31:06;;;;;;;20.27;10.57;;;30.90;99.90;;;;;;5044738;28;20116;-75
2021/12/30 04:33:33;;;;;;;21.05;11.93;;;30.80;99.90;;;;;;5041722;28;20025;-74
2021/12/30 04:36:00;;;;;;;23.25;12.55;;;30.80;99.90;;;;;;5040538;28;20080;-75
2021/12/30 04:38:29;;;;;;;22.92;12.32;;;30.80;99.90;;;;;;5041765;28;20033;-74
2021/12/30 04:40:55;;;;;;;20.60;12.25;;;30.90;99.90;;;;;;5039370;28;20043;-75
2021/12/30 04:43:22;;;;;;;15.82;10.07;;;31.00;99.90;;;;;;5036421;28;20040;-74
2021/12/30 04:45:49;;;;;;;18.00;10.57;;;31.00;99.90;;;;;;5046085;28;20029;-70
2021/12/30 04:48:17;;;;;;;20.48;11.90;;;31.00;98.90;;;;;;5043038;28;20036;-71
2021/12/30 04:50:47;;;;;;;22.00;11.30;;;31.20;98.90;;;;;;5047915;28;20070;-69
2021/12/30 04:53:16;;;;;;;20.00;11.68;;;31.20;98.90;;;;;;5038485;28;20034;-70
2021/12/30 04:55:43;;;;;;;17.48;10.32;;;31.20;99.30;;;;;;5046139;28;20021;-69
2021/12/30 04:58:09;;;;;;;12.48;7.97;;;31.20;99.20;;;;;;5063984;28;20107;-69
2021/12/30 05:00:36;;;;;;;18.20;10.15;;;31.50;98.20;;;;;;5053742;28;20044;-73
2021/12/30 05:05:36;;;;;;;23.50;10.85;;;31.50;96.30;;;;;;5048337;28;20029;-70
2021/12/30 05:08:03;;;;;;;18.55;8.70;;;31.40;97.20;;;;;;5047043;28;20037;-69
2021/12/30 05:10:30;;;;;;;19.42;9.15;;;31.40;96.50;;;;;;5049000;28;20231;-70
2021/12/30 05:12:57;;;;;;;20.08;10.45;;;31.30;97.10;;;;;;5044193;28;20037;-70
2021/12/30 05:15:23;;;;;;;14.70;7.70;;;31.30;97.30;;;;;;5048449;28;20028;-69
2021/12/30 05:17:50;;;;;;;14.65;7.90;;;31.20;97.60;;;;;;5053430;28;20029;-70
2021/12/30 05:20:17;;;;;;;14.57;7.38;;;31.40;95.30;;;;;;5054084;28;20025;-70
2021/12/30 05:22:44;;;;;;;18.33;8.98;;;31.60;94.90;;;;;;5053635;28;20469;-69
2021/12/30 05:25:12;;;;;;;23.50;9.55;;;31.50;96.20;;;;;;5053097;28;20029;-72
2021/12/30 05:27:39;;;;;;;17.80;8.60;;;31.40;95.50;;;;;;5053400;28;20508;-71
2021/12/30 05:30:08;;;;;;;17.45;8.55;;;31.30;96.40;;;;;;5053556;28;20040;-71
2021/12/30 05:32:35;;;;;;;18.13;8.63;;;31.30;96.20;;;;;;5052978;28;20024;-72
2021/12/30 05:35:03;;;;;;;15.75;7.30;;;31.50;95.70;;;;;;5053458;28;20025;-71
2021/12/30 05:37:30;;;;;;;13.00;8.02;;;31.80;93.50;;;;;;5052935;28;20096;-72
2021/12/30 05:39:57;;;;;;;59.53;11.85;;;31.80;93.00;;;;;;5052534;28;20021;-72
2021/12/30 05:42:24;;;;;;;29.60;9.45;;;31.90;94.90;;;;;;5051744;28;20079;-72
2021/12/30 05:44:54;;;;;;;35.25;21.92;;;31.90;94.80;;;;;;5052757;28;20039;-70
2021/12/30 05:47:22;;;;;;;68.10;23.52;;;31.90;94.30;;;;;;5052547;28;20604;-74
2021/12/30 05:49:49;;;;;;;16.73;9.40;;;31.80;94.90;;;;;;5052755;28;20385;-72
2021/12/30 05:52:16;;;;;;;19.13;9.57;;;31.80;93.70;;;;;;5052880;28;20035;-70
2021/12/30 05:54:44;;;;;;;26.25;15.65;;;31.90;94.20;;;;;;5052661;28;20040;-72
2021/12/30 05:57:11;;;;;;;21.85;9.32;;;32.20;91.20;;;;;;5053146;28;20021;-71
2021/12/30 05:59:38;;;;;;;17.60;7.75;;;32.10;92.50;;;;;;5053451;28;20098;-72
2021/12/30 06:02:04;;;;;;;22.08;8.18;;;32.20;91.20;;;;;;5052761;28;20128;-74
2021/12/30 06:04:31;;;;;;;38.13;8.77;;;32.50;91.20;;;;;;5053056;28;20021;-72
2021/12/30 06:06:58;;;;;;;20.73;8.35;;;32.70;89.70;;;;;;5052911;28;20366;-72
2021/12/30 06:09:26;;;;;;;21.67;7.60;;;32.60;89.50;;;;;;5052836;28;20466;-72
2021/12/30 06:11:53;;;;;;;12.57;8.35;;;32.70;89.90;;;;;;5052904;28;20493;-70
2021/12/30 06:14:20;;;;;;;15.52;7.97;;;32.90;87.20;;;;;;5052931;28;20035;-72
2021/12/30 06:16:47;;;;;;;15.15;7.60;;;32.80;89.00;;;;;;5052545;28;20025;-76
2021/12/30 06:19:13;;;;;;;12.20;7.95;;;32.70;87.40;;;;;;5052999;28;20032;-72
2021/12/30 06:21:40;;;;;;;13.55;7.68;;;32.80;85.80;;;;;;5052852;28;20029;-72
2021/12/30 06:24:07;;;;;;;16.42;7.47;;;33.10;88.00;;;;;;5052701;28;20036;-72
2021/12/30 06:26:34;;;;;;;14.25;8.02;;;33.10;84.90;;;;;;5052899;28;20074;-72
2021/12/30 06:29:00;;;;;;;14.73;7.65;;;33.10;87.90;;;;;;5052746;28;20409;-73
2021/12/30 06:31:27;;;;;;;17.52;7.70;;;32.90;85.50;;;;;;5052681;28;20361;-74
2021/12/30 06:33:54;;;;;;;13.68;7.50;;;32.80;86.10;;;;;;5053086;28;20029;-71
2021/12/30 06:36:21;;;;;;;12.93;7.55;;;32.90;88.70;;;;;;5053041;28;20373;-71
2021/12/30 06:38:49;;;;;;;17.50;7.35;;;33.10;86.70;;;;;;5052879;28;20021;-73
2021/12/30 06:41:16;;;;;;;18.30;8.13;;;33.10;84.30;;;;;;5052932;28;20021;-73
2021/12/30 06:43:42;;;;;;;13.35;6.70;;;33.10;86.40;;;;;;5052655;28;20428;-73
2021/12/30 06:46:10;;;;;;;13.68;8.38;;;33.10;82.30;;;;;;5052569;28;20029;-74
2021/12/30 06:48:44;;;;;;;13.18;8.10;;;33.10;84.40;;;;;;5052564;28;20096;-72
2021/12/30 06:51:11;;;;;;;19.85;7.88;;;33.00;83.50;;;;;;5055179;28;20017;-73
2021/12/30 06:53:38;;;;;;;20.70;8.23;;;32.90;85.80;;;;;;5056595;28;20025;-73
2021/12/30 06:56:05;;;;;;;15.00;7.68;;;32.90;87.80;;;;;;5056395;28;20021;-72
2021/12/30 06:58:32;;;;;;;23.67;9.73;;;32.90;85.40;;;;;;5056344;28;20025;-74
2021/12/30 07:00:59;;;;;;;28.25;10.50;;;32.90;85.90;;;;;;5055947;28;20046;-71
2021/12/30 07:03:26;;;;;;;20.35;9.02;;;32.90;85.20;;;;;;5056603;28;20033;-70
2021/12/30 07:05:55;;;;;;;23.58;8.77;;;32.90;85.90;;;;;;5056229;28;20040;-70
2021/12/30 07:08:22;;;;;;;17.80;9.63;;;32.80;85.00;;;;;;5056107;28;20032;-72
2021/12/30 07:10:50;;;;;;;16.35;8.35;;;32.80;81.80;;;;;;5056485;28;20017;-72
2021/12/30 07:13:17;;;;;;;22.42;8.55;;;32.70;83.90;;;;;;5055955;28;20029;-73
2021/12/30 07:15:44;;;;;;;15.98;7.97;;;32.80;85.60;;;;;;5055783;28;20021;-72
2021/12/30 07:18:10;;;;;;;28.90;8.27;;;32.90;85.90;;;;;;5056305;28;20424;-71
2021/12/30 07:20:37;;;;;;;15.80;8.77;;;33.00;83.90;;;;;;5055936;28;20021;-71
2021/12/30 07:23:04;;;;;;;17.40;9.45;;;33.10;85.00;;;;;;5055678;28;20036;-72
2021/12/30 07:25:31;;;;;;;21.35;10.13;;;33.10;83.30;;;;;;5055808;28;20055;-73
2021/12/30 07:27:57;;;;;;;40.25;21.52;;;33.00;84.50;;;;;;5055863;28;20378;-71
2021/12/30 07:30:26;;;;;;;19.42;9.23;;;32.90;88.20;;;;;;5055985;28;20424;-73
2021/12/30 07:32:53;;;;;;;22.92;8.57;;;32.90;84.60;;;;;;5055822;28;20090;-71
2021/12/30 07:35:21;;;;;;;21.65;9.30;;;32.80;86.00;;;;;;5055990;28;20025;-76
2021/12/30 07:37:51;;;;;;;18.52;8.60;;;32.80;85.50;;;;;;5055450;28;20047;-71
2021/12/30 07:40:19;;;;;;;20.45;8.90;;;32.80;85.50;;;;;;5055846;28;20028;-75
2021/12/30 07:42:46;;;;;;;18.55;8.90;;;32.80;86.10;;;;;;5055864;28;20036;-74
2021/12/30 07:45:13;;;;;;;15.35;8.75;;;32.90;86.40;;;;;;5055697;28;20474;-73
2021/12/30 07:47:41;;;;;;;16.08;8.82;;;32.90;85.90;;;;;;5055224;28;20363;-74
2021/12/30 07:50:08;;;;;;;13.60;9.07;;;32.90;85.40;;;;;;5055671;28;20053;-73
2021/12/30 07:52:36;;;;;;;21.33;8.90;;;32.90;85.70;;;;;;5055311;28;20056;-72
2021/12/30 07:55:04;;;;;;;19.75;9.48;;;32.90;85.80;;;;;;5055725;28;20024;-76
2021/12/30 07:57:31;;;;;;;15.77;8.77;;;32.90;84.00;;;;;;5055284;28;20359;-71
2021/12/30 07:59:57;;;;;;;15.13;9.07;;;32.80;83.40;;;;;;5055295;28;20386;-75
2021/12/30 08:02:24;;;;;;;15.32;9.20;;;32.90;85.10;;;;;;5054834;28;20025;-73
2021/12/30 08:04:51;;;;;;;14.90;9.57;;;32.90;84.50;;;;;;5055119;28;20032;-72
2021/12/30 08:07:22;;;;;;;15.95;9.25;;;33.00;84.10;;;;;;5048784;28;20029;-76
2021/12/30 08:09:49;;;;;;;15.05;9.77;;;33.00;82.90;;;;;;5044035;28;20493;-72
2021/12/30 08:12:15;;;;;;;18.20;10.40;;;32.90;83.10;;;;;;5045417;28;20025;-73
2021/12/30 08:14:42;;;;;;;18.05;9.40;;;32.90;84.40;;;;;;5044334;28;20089;-73
2021/12/30 08:17:09;;;;;;;18.08;10.20;;;33.00;85.50;;;;;;5042957;28;20091;-73
2021/12/30 08:19:36;;;;;;;14.85;8.73;;;33.00;83.40;;;;;;5045439;28;20461;-73
2021/12/30 08:22:04;;;;;;;15.13;8.90;;;33.00;80.40;;;;;;5034831;28;20060;-76
2021/12/30 08:24:30;;;;;;;16.35;9.43;;;32.80;81.00;;;;;;5034812;28;20021;-73
2021/12/30 08:27:01;;;;;;;14.45;8.95;;;32.70;81.20;;;;;;5037980;28;20029;-73
2021/12/30 08:29:31;;;;;;;13.38;8.73;;;32.80;81.40;;;;;;5044328;28;20501;-73
2021/12/30 08:31:58;;;;;;;35.53;10.63;;;32.70;83.30;;;;;;5044997;28;20493;-73
2021/12/30 08:34:25;;;;;;;17.63;9.88;;;32.80;81.60;;;;;;5043550;28;20024;-74
2021/12/30 08:36:51;;;;;;;18.58;10.43;;;32.70;82.00;;;;;;5039791;28;20442;-72
2021/12/30 08:39:18;;;;;;;23.40;14.30;;;32.80;84.30;;;;;;5041539;28;20382;-72
2021/12/30 08:41:45;;;;;;;21.65;13.65;;;32.70;81.40;;;;;;5043495;28;20122;-73
2021/12/30 08:44:11;;;;;;;29.17;14.57;;;32.80;80.50;;;;;;5042218;28;20036;-72
2021/12/30 08:46:38;;;;;;;24.10;15.32;;;32.80;82.50;;;;;;5054116;28;20481;-75
2021/12/30 08:49:05;;;;;;;29.38;16.77;;;32.80;82.40;;;;;;5045971;28;20083;-70
2021/12/30 08:51:31;;;;;;;25.45;17.40;;;32.70;83.00;;;;;;5043942;28;20088;-72
2021/12/30 08:53:58;;;;;;;23.08;13.63;;;32.70;83.50;;;;;;5045132;28;20025;-71
2021/12/30 08:56:25;;;;;;;23.70;13.93;;;32.70;86.70;;;;;;5043774;28;20096;-71
2021/12/30 08:58:51;;;;;;;18.40;11.65;;;32.60;90.10;;;;;;5043601;28;20025;-71
2021/12/30 09:01:18;;;;;;;17.80;11.13;;;32.50;90.50;;;;;;5044849;28;20040;-72
2021/12/30 09:03:45;;;;;;;18.27;10.68;;;32.40;90.70;;;;;;5043573;28;20021;-71
2021/12/30 09:06:12;;;;;;;29.58;14.73;;;32.30;90.70;;;;;;5043439;28;20017;-70
2021/12/30 09:08:38;;;;;;;27.17;17.83;;;32.10;91.20;;;;;;5044946;28;20071;-69
2021/12/30 09:11:05;;;;;;;30.48;18.90;;;32.00;91.00;;;;;;5043565;28;20029;-70
2021/12/30 09:13:32;;;;;;;25.88;13.07;;;32.00;91.10;;;;;;5042450;28;20075;-71
2021/12/30 09:15:58;;;;;;;23.90;13.75;;;32.00;91.70;;;;;;5043871;28;20105;-68
2021/12/30 09:18:25;;;;;;;37.70;23.40;;;32.00;91.70;;;;;;5043284;28;20021;-69
2021/12/30 09:20:52;;;;;;;51.83;31.90;;;31.90;90.80;;;;;;5043111;28;20506;-69
2021/12/30 09:23:19;;;;;;;37.25;24.67;;;31.80;91.60;;;;;;5044646;28;20108;-69
2021/12/30 09:25:46;;;;;;;40.17;23.38;;;31.80;90.70;;;;;;5043246;28;20104;-68
2021/12/30 09:28:14;;;;;;;32.67;18.88;;;31.90;91.20;;;;;;5043062;28;20048;-68
2021/12/30 09:30:43;;;;;;;25.20;13.27;;;31.90;91.20;;;;;;5044018;28;20477;-71
2021/12/30 09:33:15;;;;;;;31.27;15.45;;;31.90;90.30;;;;;;5041389;28;20072;-71
2021/12/30 09:35:43;;;;;;;27.63;16.02;;;31.90;90.80;;;;;;5032950;28;20030;-69
2021/12/30 09:38:10;;;;;;;25.95;13.32;;;31.80;90.00;;;;;;5033077;28;20037;-69
2021/12/30 09:40:36;;;;;;;33.38;18.17;;;31.80;90.60;;;;;;5038631;28;20017;-70
2021/12/30 09:43:04;;;;;;;41.72;28.00;;;31.80;90.20;;;;;;5043024;28;20504;-70
2021/12/30 09:45:36;;;;;;;33.35;20.48;;;31.70;91.00;;;;;;5042284;28;20040;-69
2021/12/30 09:48:05;;;;;;;41.83;25.75;;;31.60;91.20;;;;;;5053149;28;20056;-69
2021/12/30 09:50:36;;;;;;;49.47;32.30;;;31.60;90.80;;;;;;5053201;28;20390;-70
2021/12/30 09:53:04;;;;;;;45.10;26.88;;;31.50;91.60;;;;;;5053490;28;20128;-68
2021/12/30 09:55:31;;;;;;;30.50;20.88;;;31.60;91.80;;;;;;5053308;28;20029;-68
2021/12/30 09:58:00;;;;;;;29.08;19.73;;;31.60;92.50;;;;;;5053724;28;20040;-71
2021/12/30 10:00:28;;;;;;;32.17;18.52;;;31.50;93.00;;;;;;5053435;28;20434;-70
2021/12/30 10:02:55;;;;;;;32.40;21.25;;;31.50;93.00;;;;;;5053134;28;20029;-71
2021/12/30 10:05:26;;;;;;;32.80;17.38;;;31.50;93.90;;;;;;5053119;28;20025;-69
2021/12/30 10:08:15;;;;;;;58.80;38.27;;;31.50;93.90;;;;;;5053383;28;20278;-69
2021/12/30 10:10:50;;;;;;;57.83;34.08;;;31.60;94.70;;;;;;5053336;28;20025;-69
2021/12/30 10:13:29;;;;;;;40.45;23.52;;;31.50;95.00;;;;;;5053203;28;20036;-69
2021/12/30 10:16:15;;;;;;;49.70;27.75;;;31.30;94.60;;;;;;5053095;28;20029;-68
2021/12/30 10:18:50;;;;;;;54.35;32.58;;;31.10;94.80;;;;;;5053044;28;20021;-69
2021/12/30 10:21:28;;;;;;;49.78;30.17;;;30.90;95.30;;;;;;5049959;28;20017;-69
2021/12/30 10:23:58;;;;;;;57.58;34.13;;;30.70;96.00;;;;;;5053751;28;20382;-69
2021/12/30 10:26:25;;;;;;;49.10;28.98;;;30.70;97.00;;;;;;5057328;28;20032;-71
2021/12/30 10:28:56;;;;;;;45.13;26.75;;;30.60;98.60;;;;;;5056897;28;20094;-70
2021/12/30 10:31:29;;;;;;;47.63;27.38;;;30.30;99.90;;;;;;5045866;28;20029;-73
2021/12/30 10:34:05;;;;;;;58.72;31.95;;;30.30;99.90;;;;;;5045108;28;20079;-73
2021/12/30 10:36:34;;;;;;;60.15;32.78;;;30.30;99.90;;;;;;5036697;28;20022;-70
2021/12/30 10:39:24;;;;;;;54.47;33.85;;;30.10;99.90;;;;;;5055291;28;20025;-70
2021/12/30 10:42:04;;;;;;;42.40;27.80;;;30.00;99.90;;;;;;5056164;28;20037;-71
2021/12/30 10:44:53;;;;;;;39.17;23.75;;;29.90;99.90;;;;;;5056968;28;20052;-72
2021/12/30 10:47:22;;;;;;;42.50;26.98;;;29.70;99.90;;;;;;5056386;28;20524;-71
2021/12/30 10:49:58;;;;;;;41.47;24.58;;;29.60;99.90;;;;;;5056886;28;20032;-69
2021/12/30 10:52:26;;;;;;;34.85;21.70;;;29.50;99.90;;;;;;5056245;28;20029;-69
2021/12/30 10:54:53;;;;;;;32.85;19.65;;;29.50;99.90;;;;;;5056876;28;20029;-71
2021/12/30 10:57:20;;;;;;;37.97;21.23;;;29.40;99.90;;;;;;5056762;28;20071;-69
2021/12/30 10:59:50;;;;;;;48.15;26.40;;;29.50;99.90;;;;;;5056808;28;20025;-69
2021/12/30 11:02:21;;;;;;;49.50;26.88;;;29.50;99.90;;;;;;5056418;28;20032;-69
2021/12/30 11:05:00;;;;;;;39.37;24.03;;;29.50;99.90;;;;;;5056369;28;20029;-70
2021/12/30 11:07:48;;;;;;;43.08;24.88;;;29.50;99.90;;;;;;5056549;28;20108;-69
2021/12/30 11:10:27;;;;;;;42.88;23.17;;;29.40;99.90;;;;;;5056418;28;20127;-71
2021/12/30 11:12:54;;;;;;;42.45;26.30;;;29.20;99.90;;;;;;5056374;28;20056;-70
2021/12/30 11:15:26;;;;;;;53.70;32.28;;;29.20;99.90;;;;;;5040695;28;20032;-69
2021/12/30 11:18:07;;;;;;;48.70;26.65;;;29.10;99.90;;;;;;5054490;28;20033;-71
2021/12/30 11:20:40;;;;;;;45.88;26.83;;;29.20;99.90;;;;;;5056063;28;20377;-69
2021/12/30 11:23:06;;;;;;;47.08;25.75;;;29.10;99.90;;;;;;5056044;28;20041;-70
2021/12/30 11:25:34;;;;;;;54.90;30.48;;;29.10;99.90;;;;;;5056242;28;20029;-72
2021/12/30 11:28:01;;;;;;;54.85;31.33;;;29.10;99.90;;;;;;5055691;28;20045;-69
2021/12/30 11:30:27;;;;;;;63.33;29.27;;;29.10;99.90;;;;;;5056193;28;20102;-68
2021/12/30 11:32:54;;;;;;;56.92;30.65;;;29.10;99.90;;;;;;5055306;28;20036;-69
2021/12/30 11:35:25;;;;;;;66.43;36.38;;;29.10;99.90;;;;;;5046066;28;20030;-69
2021/12/30 11:37:52;;;;;;;147.13;78.57;;;29.10;99.90;;;;;;5044411;28;20029;-69
2021/12/30 11:40:23;;;;;;;138.13;70.70;;;29.00;99.90;;;;;;5045855;28;20071;-69
2021/12/30 11:42:53;;;;;;;59.83;31.55;;;28.90;99.90;;;;;;5046354;28;20037;-70
2021/12/30 11:45:34;;;;;;;55.17;28.10;;;29.00;99.90;;;;;;5040914;28;20030;-68
2021/12/30 11:48:15;;;;;;;53.17;30.70;;;29.00;99.90;;;;;;5035615;28;20030;-68
2021/12/30 11:50:41;;;;;;;33.03;21.45;;;28.90;99.90;;;;;;5035885;28;20029;-68
2021/12/30 11:53:09;;;;;;;27.17;17.83;;;28.90;99.90;;;;;;5035453;28;20100;-70
2021/12/30 11:55:59;;;;;;;30.08;18.00;;;28.90;99.90;;;;;;5035593;28;20018;-70
2021/12/30 11:58:36;;;;;;;25.25;16.83;;;28.90;99.90;;;;;;5044390;28;20029;-68
2021/12/30 12:01:08;;;;;;;25.40;15.80;;;28.90;99.90;;;;;;5040532;28;20475;-69
2021/12/30 12:03:42;;;;;;;22.70;14.32;;;28.90;99.90;;;;;;5035454;28;20030;-71
2021/12/30 12:06:27;;;;;;;28.00;18.23;;;28.80;99.90;;;;;;5034271;28;20036;-68
2021/12/30 12:09:00;;;;;;;27.10;18.30;;;28.70;99.90;;;;;;5033931;28;20025;-68
2021/12/30 12:11:31;;;;;;;26.38;16.52;;;28.70;99.90;;;;;;5037253;28;20385;-67
2021/12/30 12:14:12;;;;;;;40.53;21.97;;;28.80;99.90;;;;;;5042919;28;20489;-67
2021/12/30 12:16:48;;;;;;;45.67;25.70;;;28.90;99.90;;;;;;5043744;28;20037;-66
2021/12/30 12:19:17;;;;;;;38.40;23.23;;;28.90;99.90;;;;;;5043383;28;20422;-67
2021/12/30 12:21:48;;;;;;;28.50;17.20;;;28.90;99.90;;;;;;5044492;28;20032;-67
2021/12/30 12:24:21;;;;;;;26.92;15.30;;;28.90;99.90;;;;;;5042965;28;20064;-69
2021/12/30 12:26:48;;;;;;;;;;;28.90;99.90;;;;;;5044614;28;20390;-68
2021/12/30 12:29:21;;;;;;;26.70;15.45;;;28.90;99.90;;;;;;5045090;28;19912;-67
2021/12/30 12:31:53;;;;;;;25.67;15.43;;;28.90;99.90;;;;;;5044945;28;20522;-68
2021/12/30 12:34:45;;;;;;;29.85;16.40;;;28.70;99.90;;;;;;5040318;28;20355;-67
2021/12/30 12:37:29;;;;;;;215.60;160.02;;;28.60;99.90;;;;;;5046638;28;20437;-68
2021/12/30 12:39:58;;;;;;;51.45;30.02;;;28.70;99.90;;;;;;5043576;28;20190;-68